KLJF

Details ICAO KLJF
Name LITCHFIELD MUNI
Region United States
Timezone America/Chicago (UTC-5.0)
Plans Departing 1
Arriving 1
Stats Elevation 1,140 ft / 347 m (AMSL)
Location 45.097130° -94.507256°
Runways 1
Magnetic Variation 1.178° E
Sunrise 2018-05-26 10:39:37 UTC / 2018-05-26 05:39:37 Local
Sunset 2018-05-27 01:53:28 UTC / 2018-05-26 20:53:28 Local
Advertisement - Login to hide

Runways

ID Width Length Bearing (true) Bearing (mag) Surface Threshold Offset Overrun Length
13 100 ft / 30 m 4,000 ft / 1,219 m 138.56° 137.38° Asphalt 0 ft / 0 m 0 ft / 0 m
31 100 ft / 30 m 4,000 ft / 1,219 m 318.57° 317.39° Asphalt 0 ft / 0 m 0 ft / 0 m

Map

Weather


0- 5 10 15 20 25 30 35+ Temperature / ° C

Clouds and Precipitation
Forecast for 2018-05-26 18:00 UTC. Updated 5 hours ago

Ground ~20,000 ft ~40,000 ft Winds

METAR

KLJF 262155Z AUTO 28005KT 10SM CLR 34/11 A2970 RMK AO2

TAF

Not found

Frequencies

Unicom 122.90 MHz CTAF
Warning: Do not use this data for real-world aviation or navigation. No guarantee of current accuracy is given.